Time;durP1;ratioP1;P1;durP2;ratioP2;P2;SDS_P1;SDS_P2;PMS_P1;PMS_P2;Temp;Humidity;BMP_temperature;BMP_pressure;BME280_temperature;BME280_humidity;BME280_pressure;Samples;Min_cycle;Max_cycle;Signal;HPM_P1;HPM_P2
2021/12/22 00:01:27;;;;;;;16.58;8.35;;;1.00;97.40;;;;;;5093218;28;20386;-80
2021/12/22 00:03:53;;;;;;;16.13;8.45;;;1.00;97.20;;;;;;5093029;28;20394;-79
2021/12/22 00:06:22;;;;;;;16.20;7.95;;;1.00;97.20;;;;;;5075770;28;20028;-80
2021/12/22 00:08:47;;;;;;;16.83;8.30;;;0.90;97.20;;;;;;5093279;28;20023;-79
2021/12/22 00:11:13;;;;;;;18.42;8.55;;;0.90;97.20;;;;;;5075234;28;20447;-79
2021/12/22 00:13:39;;;;;;;17.30;8.55;;;0.90;97.10;;;;;;5075849;28;20059;-80
2021/12/22 00:16:05;;;;;;;17.42;8.45;;;0.90;97.10;;;;;;5077535;28;20441;-79
2021/12/22 00:18:30;;;;;;;15.75;7.95;;;0.90;97.10;;;;;;5098040;28;20024;-80
2021/12/22 00:20:56;;;;;;;16.48;8.27;;;0.90;97.10;;;;;;5075559;28;20052;-78
2021/12/22 00:23:22;;;;;;;16.58;8.32;;;0.80;97.10;;;;;;5076850;28;20028;-79
2021/12/22 00:25:48;;;;;;;20.33;8.95;;;0.80;97.10;;;;;;5075859;28;20025;-80
2021/12/22 00:28:13;;;;;;;14.75;8.68;;;0.80;97.10;;;;;;5076413;28;20023;-80
2021/12/22 00:30:40;;;;;;;16.98;8.02;;;0.80;97.10;;;;;;5076479;28;20024;-80
2021/12/22 00:33:07;;;;;;;19.85;8.40;;;0.80;97.20;;;;;;5075253;28;20032;-80
2021/12/22 00:35:45;;;;;;;17.38;8.38;;;0.80;97.20;;;;;;5076885;28;20074;-80
2021/12/22 00:38:16;;;;;;;16.17;7.85;;;0.80;97.20;;;;;;5076530;28;20147;-80
2021/12/22 00:40:43;;;;;;;17.92;9.65;;;0.80;97.10;;;;;;5077279;28;20453;-80
2021/12/22 00:43:10;;;;;;;13.60;7.72;;;0.80;97.10;;;;;;5076767;28;20025;-81
2021/12/22 00:45:36;;;;;;;14.98;7.78;;;0.70;97.10;;;;;;5076621;28;20024;-81
2021/12/22 00:48:04;;;;;;;17.35;8.23;;;0.70;97.10;;;;;;5076626;28;20127;-80
2021/12/22 00:50:30;;;;;;;19.05;8.73;;;0.70;97.10;;;;;;5076463;28;20059;-80
2021/12/22 00:52:56;;;;;;;17.65;8.07;;;0.70;97.10;;;;;;5076650;28;20079;-81
2021/12/22 00:55:22;;;;;;;15.88;8.40;;;0.70;97.40;;;;;;5076238;28;20423;-80
2021/12/22 00:57:49;;;;;;;13.75;7.43;;;0.70;97.20;;;;;;5074814;28;20025;-79
2021/12/22 01:00:17;;;;;;;14.45;7.43;;;0.70;97.20;;;;;;5074683;28;20035;-80
2021/12/22 01:02:44;;;;;;;16.10;8.57;;;0.70;97.20;;;;;;5075923;28;20107;-80
2021/12/22 01:05:12;;;;;;;15.10;7.93;;;0.70;97.20;;;;;;5075125;28;20031;-79
2021/12/22 01:07:39;;;;;;;13.82;7.00;;;0.70;97.20;;;;;;5074790;28;20021;-80
2021/12/22 01:10:07;;;;;;;16.67;8.15;;;0.60;97.20;;;;;;5076147;28;20036;-80
2021/12/22 01:12:33;;;;;;;14.50;7.93;;;0.60;97.20;;;;;;5074505;28;20082;-79
2021/12/22 01:14:59;;;;;;;13.10;7.50;;;0.60;97.20;;;;;;5074738;28;20036;-80
2021/12/22 01:17:25;;;;;;;15.85;7.47;;;0.60;97.20;;;;;;5075670;28;20024;-80
2021/12/22 01:20:00;;;;;;;14.02;7.75;;;0.60;97.20;;;;;;5081816;28;20055;-79
2021/12/22 01:25:07;;;;;;;14.13;7.00;;;0.60;97.20;;;;;;5096607;28;20504;-79
2021/12/22 01:27:38;;;;;;;16.15;6.82;;;0.60;97.20;;;;;;5078665;28;20356;-79
2021/12/22 01:30:31;;;;;;;14.43;7.07;;;0.60;97.10;;;;;;5078851;28;20502;-80
2021/12/22 01:32:59;;;;;;;16.45;7.68;;;0.60;97.10;;;;;;5092857;28;20036;-80
2021/12/22 01:35:28;;;;;;;18.95;7.80;;;0.50;97.10;;;;;;5095627;28;20514;-79
2021/12/22 01:37:54;;;;;;;15.40;8.18;;;0.50;97.10;;;;;;5095868;28;20107;-79
2021/12/22 01:40:21;;;;;;;12.27;6.80;;;0.50;97.10;;;;;;5095839;28;20104;-79
2021/12/22 01:42:48;;;;;;;15.73;7.13;;;0.50;97.10;;;;;;5078328;28;20028;-81
2021/12/22 01:45:48;;;;;;;17.23;7.72;;;0.50;97.10;;;;;;5078746;28;20570;-80
2021/12/22 01:51:06;;;;;;;16.40;7.97;;;0.40;97.00;;;;;;5107639;28;20383;-79
2021/12/22 01:53:39;;;;;;;15.40;7.88;;;0.40;97.00;;;;;;5103216;28;20024;-80
2021/12/22 01:58:45;;;;;;;13.32;6.63;;;0.40;97.10;;;;;;5096098;28;20035;-80
2021/12/22 02:01:12;;;;;;;15.30;7.35;;;0.40;97.10;;;;;;5096382;28;20024;-80
2021/12/22 02:03:39;;;;;;;17.67;8.10;;;0.40;97.10;;;;;;5096525;28;20028;-80
2021/12/22 02:06:06;;;;;;;15.73;7.30;;;0.40;97.10;;;;;;5097256;28;20035;-80
2021/12/22 02:08:36;;;;;;;16.13;7.93;;;0.30;97.10;;;;;;5094295;28;20027;-80
2021/12/22 02:11:04;;;;;;;14.95;8.32;;;0.30;97.10;;;;;;5104491;28;20028;-80
2021/12/22 02:13:35;;;;;;;17.80;8.20;;;0.30;97.10;;;;;;5094395;28;20051;-80
2021/12/22 02:16:09;;;;;;;15.70;7.03;;;0.30;97.10;;;;;;5110596;28;20058;-79
2021/12/22 02:18:37;;;;;;;18.92;8.02;;;0.30;97.10;;;;;;5096122;28;20020;-80
2021/12/22 02:21:04;;;;;;;15.13;7.45;;;0.30;97.00;;;;;;5094777;28;20048;-79
2021/12/22 02:23:30;;;;;;;13.77;7.40;;;0.30;97.00;;;;;;5095202;28;20456;-80
2021/12/22 02:26:01;;;;;;;17.52;7.80;;;0.30;97.00;;;;;;5095107;28;20020;-79
2021/12/22 02:28:34;;;;;;;19.63;8.07;;;0.20;97.00;;;;;;5095160;28;20113;-80
2021/12/22 02:31:00;;;;;;;15.85;8.02;;;0.20;97.00;;;;;;5077094;28;20031;-80
2021/12/22 02:33:36;;;;;;;15.98;7.38;;;0.20;97.00;;;;;;5076913;28;20028;-80
2021/12/22 02:38:35;;;;;;;17.92;8.95;;;0.10;96.90;;;;;;5094892;28;20055;-80
2021/12/22 02:41:00;;;;;;;14.57;8.47;;;0.10;96.90;;;;;;5096089;28;20024;-79
2021/12/22 02:43:31;;;;;;;15.70;7.93;;;0.10;96.90;;;;;;5077237;28;20124;-80
2021/12/22 02:45:57;;;;;;;19.02;8.13;;;0.10;97.00;;;;;;5095762;28;20069;-80
2021/12/22 02:48:27;;;;;;;16.35;7.78;;;0.10;97.10;;;;;;5076592;28;20020;-80
2021/12/22 02:50:54;;;;;;;14.25;7.28;;;0.10;97.10;;;;;;5076609;28;20016;-80
2021/12/22 02:53:25;;;;;;;16.27;7.82;;;0.10;97.10;;;;;;5075879;28;20020;-80
2021/12/22 02:55:59;;;;;;;17.57;7.27;;;0.10;97.10;;;;;;5094560;28;20032;-80
2021/12/22 03:01:24;;;;;;;;;;;0.10;97.00;;;;;;5094872;28;20384;-80
2021/12/22 03:04:03;;;;;;;14.00;6.68;;;0.10;97.00;;;;;;5094577;28;19904;-80
2021/12/22 03:06:50;;;;;;;17.67;8.35;;;0.10;96.90;;;;;;5076920;28;20062;-80
2021/12/22 03:09:23;;;;;;;13.80;7.03;;;0.00;96.90;;;;;;5094059;28;20353;-79
2021/12/22 03:11:50;;;;;;;18.25;7.55;;;0.00;97.00;;;;;;5076811;28;20368;-79
2021/12/22 03:14:17;;;;;;;13.70;7.80;;;0.00;97.00;;;;;;5075958;28;20020;-79
2021/12/22 03:16:43;;;;;;;15.95;7.88;;;0.00;97.00;;;;;;5093653;28;20081;-80
2021/12/22 03:19:10;;;;;;;16.88;7.90;;;0.00;97.00;;;;;;5094245;28;20456;-79
2021/12/22 03:21:37;;;;;;;15.30;6.75;;;0.00;97.00;;;;;;5075593;28;20131;-79
2021/12/22 03:24:03;;;;;;;12.73;6.63;;;0.00;97.00;;;;;;5075924;28;20028;-79
2021/12/22 03:26:29;;;;;;;19.27;7.88;;;-0.10;96.90;;;;;;5075977;28;20023;-79
2021/12/22 03:28:55;;;;;;;16.92;7.60;;;-0.10;96.90;;;;;;5093980;28;20073;-79
2021/12/22 03:31:21;;;;;;;17.73;7.78;;;-0.10;96.90;;;;;;5076377;28;20027;-80
2021/12/22 03:33:47;;;;;;;22.30;8.00;;;-0.10;96.90;;;;;;5093972;28;20039;-80
2021/12/22 03:36:13;;;;;;;18.73;7.72;;;-0.10;96.90;;;;;;5093924;28;20027;-79
2021/12/22 03:38:39;;;;;;;15.13;6.97;;;-0.10;96.90;;;;;;5093800;28;20103;-79
2021/12/22 03:41:07;;;;;;;17.63;7.45;;;-0.10;96.90;;;;;;5076702;28;20058;-80
2021/12/22 03:43:34;;;;;;;16.90;8.55;;;-0.10;96.90;;;;;;5096793;28;20049;-80
2021/12/22 03:46:00;;;;;;;15.85;7.43;;;-0.10;97.00;;;;;;5084502;28;20088;-79
2021/12/22 03:48:26;;;;;;;12.13;6.68;;;-0.10;97.00;;;;;;5100440;28;20024;-80
2021/12/22 03:50:52;;;;;;;13.35;7.00;;;-0.20;97.00;;;;;;5084631;28;20365;-80
2021/12/22 03:53:18;;;;;;;17.98;7.38;;;-0.10;97.00;;;;;;5093426;28;20024;-79
2021/12/22 03:55:44;;;;;;;16.45;6.47;;;-0.10;97.00;;;;;;5076234;28;20097;-80
2021/12/22 03:58:10;;;;;;;13.00;6.82;;;-0.10;97.00;;;;;;5093937;28;20028;-79
2021/12/22 04:00:38;;;;;;;18.40;7.78;;;-0.10;96.90;;;;;;5075088;28;20070;-80
2021/12/22 04:03:04;;;;;;;15.75;7.65;;;-0.20;96.90;;;;;;5093630;28;20107;-80
2021/12/22 04:05:31;;;;;;;17.63;7.35;;;-0.20;96.90;;;;;;5093452;28;20051;-80
2021/12/22 04:07:57;;;;;;;12.82;7.70;;;-0.20;96.90;;;;;;5093379;28;20027;-80
2021/12/22 04:10:25;;;;;;;15.55;7.10;;;-0.20;97.00;;;;;;5093533;28;20024;-80
2021/12/22 04:12:56;;;;;;;15.95;7.03;;;-0.20;96.90;;;;;;5075424;28;20458;-80
2021/12/22 04:15:25;;;;;;;15.35;7.25;;;-0.20;96.90;;;;;;5096053;28;20044;-80
2021/12/22 04:17:51;;;;;;;13.95;7.47;;;-0.20;96.90;;;;;;5099198;28;20038;-79
2021/12/22 04:20:17;;;;;;;11.30;6.30;;;-0.30;96.90;;;;;;5085589;28;20117;-80
2021/12/22 04:22:43;;;;;;;18.90;8.25;;;-0.30;96.90;;;;;;5105616;28;20024;-79
2021/12/22 04:25:09;;;;;;;20.13;8.27;;;-0.30;96.80;;;;;;5100049;28;20498;-79
2021/12/22 04:27:36;;;;;;;13.73;6.60;;;-0.30;96.80;;;;;;5104967;28;20114;-78
2021/12/22 04:30:04;;;;;;;18.27;8.65;;;-0.30;96.80;;;;;;5083341;28;20024;-79
2021/12/22 04:32:30;;;;;;;19.67;7.93;;;-0.30;96.80;;;;;;5093606;28;20035;-79
2021/12/22 04:34:56;;;;;;;17.98;6.93;;;-0.40;96.80;;;;;;5093404;28;20346;-80
2021/12/22 04:37:22;;;;;;;14.85;6.90;;;-0.30;96.80;;;;;;5093261;28;20028;-80
2021/12/22 04:39:47;;;;;;;17.48;8.05;;;-0.40;96.80;;;;;;5075531;28;20054;-79
2021/12/22 04:42:15;;;;;;;13.73;6.20;;;-0.40;96.80;;;;;;5075410;28;20032;-80
2021/12/22 04:44:41;;;;;;;16.80;8.23;;;-0.40;96.80;;;;;;5093386;28;20109;-80
2021/12/22 04:47:06;;;;;;;14.57;6.72;;;-0.40;96.70;;;;;;5075437;28;20017;-79
2021/12/22 04:49:32;;;;;;;20.67;9.02;;;-0.40;96.70;;;;;;5074608;28;20453;-80
2021/12/22 04:51:59;;;;;;;20.02;8.60;;;-0.40;96.80;;;;;;5093332;28;20425;-80
2021/12/22 04:56:55;;;;;;;17.25;8.98;;;-0.40;96.80;;;;;;5093264;28;20460;-80
2021/12/22 04:59:21;;;;;;;17.20;8.40;;;-0.50;96.70;;;;;;5074672;28;20057;-79
2021/12/22 05:01:47;;;;;;;16.38;7.85;;;-0.50;96.70;;;;;;5076940;28;20040;-79
2021/12/22 05:04:13;;;;;;;18.80;8.65;;;-0.50;96.70;;;;;;5096785;28;20118;-79
2021/12/22 05:06:39;;;;;;;18.98;7.95;;;-0.40;96.70;;;;;;5096862;28;20016;-80
2021/12/22 05:09:06;;;;;;;15.98;7.15;;;-0.50;96.70;;;;;;5078917;28;20041;-79
2021/12/22 05:11:33;;;;;;;12.48;6.72;;;-0.50;96.70;;;;;;5096337;28;20445;-79
2021/12/22 05:13:58;;;;;;;19.63;7.82;;;-0.50;96.70;;;;;;5096564;28;20020;-79
2021/12/22 05:16:24;;;;;;;15.63;7.80;;;-0.50;96.70;;;;;;5096415;28;20103;-79
2021/12/22 05:21:34;;;;;;;16.83;7.30;;;-0.50;96.70;;;;;;5096290;28;20055;-78
2021/12/22 05:24:00;;;;;;;15.73;7.13;;;-0.50;96.70;;;;;;5096134;28;20102;-79
2021/12/22 05:26:25;;;;;;;16.80;7.70;;;-0.50;96.60;;;;;;5078960;28;20111;-79
2021/12/22 05:28:51;;;;;;;18.67;7.88;;;-0.50;96.60;;;;;;5078910;28;20123;-79
2021/12/22 05:31:17;;;;;;;19.77;8.95;;;-0.60;96.60;;;;;;5096619;28;20019;-79
2021/12/22 05:33:43;;;;;;;19.48;7.65;;;-0.60;96.60;;;;;;5078264;28;20524;-79
2021/12/22 05:36:09;;;;;;;20.92;9.30;;;-0.50;96.60;;;;;;5096826;28;20103;-79
2021/12/22 05:38:34;;;;;;;18.25;8.18;;;-0.60;96.60;;;;;;5098606;28;20024;-79
2021/12/22 05:41:00;;;;;;;14.50;7.53;;;-0.60;96.60;;;;;;5099044;28;20028;-79
2021/12/22 05:43:26;;;;;;;21.05;8.50;;;-0.60;96.60;;;;;;5080712;28;20092;-79
2021/12/22 05:45:52;;;;;;;17.67;8.30;;;-0.60;96.60;;;;;;5097657;28;20051;-80
2021/12/22 05:48:18;;;;;;;24.50;8.75;;;-0.60;96.60;;;;;;5078083;28;20080;-79
2021/12/22 05:50:46;;;;;;;19.67;8.20;;;-0.60;96.60;;;;;;5096113;28;20016;-79
2021/12/22 05:53:12;;;;;;;18.48;8.27;;;-0.60;96.60;;;;;;5096685;28;20097;-80
2021/12/22 05:55:38;;;;;;;17.58;7.57;;;-0.60;96.60;;;;;;5096694;28;20066;-80
2021/12/22 05:58:03;;;;;;;22.73;8.93;;;-0.70;96.50;;;;;;5077760;28;20019;-80
2021/12/22 06:00:29;;;;;;;20.13;9.57;;;-0.70;96.50;;;;;;5095771;28;20107;-79
2021/12/22 06:02:55;;;;;;;17.40;6.75;;;-0.70;96.60;;;;;;5097972;28;20082;-79
2021/12/22 06:05:21;;;;;;;20.60;8.75;;;-0.70;96.60;;;;;;5100441;28;20024;-80
2021/12/22 06:07:46;;;;;;;19.33;8.40;;;-0.70;96.60;;;;;;5086367;28;20028;-79
2021/12/22 06:10:12;;;;;;;20.25;9.30;;;-0.70;96.60;;;;;;5085933;28;20379;-79
2021/12/22 06:12:38;;;;;;;20.00;8.77;;;-0.70;96.60;;;;;;5084866;28;20024;-79
2021/12/22 06:15:04;;;;;;;23.70;9.70;;;-0.70;96.60;;;;;;5100926;28;20028;-79
2021/12/22 06:17:30;;;;;;;18.08;8.98;;;-0.80;96.60;;;;;;5082214;28;20031;-79
2021/12/22 06:19:56;;;;;;;20.67;9.43;;;-0.80;96.60;;;;;;5099063;28;20104;-79
2021/12/22 06:22:22;;;;;;;21.80;8.55;;;-0.80;96.60;;;;;;5080591;28;20050;-80
2021/12/22 06:24:48;;;;;;;16.48;8.88;;;-0.80;96.60;;;;;;5077790;28;20038;-79
2021/12/22 06:27:14;;;;;;;23.48;9.32;;;-0.80;96.60;;;;;;5077436;28;20399;-79
2021/12/22 06:29:40;;;;;;;22.23;9.30;;;-0.80;96.70;;;;;;5097224;28;20019;-79
2021/12/22 06:32:06;;;;;;;18.60;9.85;;;-0.70;96.70;;;;;;5104181;28;20473;-78
2021/12/22 06:34:31;;;;;;;21.52;8.88;;;-0.80;96.60;;;;;;5096337;28;20031;-77
2021/12/22 06:36:57;;;;;;;19.63;9.32;;;-0.70;96.60;;;;;;5084366;28;20027;-79
2021/12/22 06:39:23;;;;;;;16.00;7.97;;;-0.80;96.70;;;;;;5092106;28;20088;-78
2021/12/22 06:41:49;;;;;;;15.90;8.05;;;-0.80;96.70;;;;;;5094498;28;20020;-78
2021/12/22 06:44:15;;;;;;;18.85;7.53;;;-0.80;96.70;;;;;;5094396;28;20024;-80
2021/12/22 06:46:42;;;;;;;22.15;8.90;;;-0.70;96.70;;;;;;5111949;28;20091;-78
2021/12/22 06:49:09;;;;;;;15.85;7.10;;;-0.80;96.70;;;;;;5096687;28;20031;-79
2021/12/22 06:51:35;;;;;;;17.77;9.23;;;-0.80;96.60;;;;;;5077020;28;20445;-79
2021/12/22 06:54:01;;;;;;;18.23;9.52;;;-0.80;96.70;;;;;;5095796;28;20441;-80
2021/12/22 06:56:26;;;;;;;17.50;8.80;;;-0.80;96.70;;;;;;5094628;28;20020;-80
2021/12/22 06:58:52;;;;;;;17.10;8.70;;;-0.80;96.70;;;;;;5094738;28;20409;-80
2021/12/22 07:01:20;;;;;;;20.42;8.90;;;-0.80;96.70;;;;;;5076980;28;20544;-80
2021/12/22 07:03:46;;;;;;;17.23;8.07;;;-0.80;96.70;;;;;;5077229;28;20074;-80
2021/12/22 07:06:12;;;;;;;17.30;7.82;;;-0.80;96.70;;;;;;5077982;28;20016;-80
2021/12/22 07:08:38;;;;;;;17.85;8.35;;;-0.80;96.70;;;;;;5096519;28;20059;-80
2021/12/22 07:11:04;;;;;;;18.80;8.88;;;-0.80;96.70;;;;;;5094842;28;20028;-80
2021/12/22 07:13:30;;;;;;;19.25;7.43;;;-0.90;96.70;;;;;;5076004;28;20020;-79
2021/12/22 07:15:56;;;;;;;21.77;8.98;;;-0.80;96.70;;;;;;5094351;28;20086;-80
2021/12/22 07:18:22;;;;;;;18.30;9.48;;;-0.80;96.70;;;;;;5076019;28;20020;-80
2021/12/22 07:20:48;;;;;;;19.33;8.43;;;-0.80;96.80;;;;;;5095029;28;20044;-80
2021/12/22 07:23:13;;;;;;;18.85;8.32;;;-0.80;96.70;;;;;;5094129;28;20032;-80
2021/12/22 07:25:39;;;;;;;16.85;8.55;;;-0.80;96.80;;;;;;5094229;28;20024;-81
2021/12/22 07:28:05;;;;;;;17.17;9.25;;;-0.80;96.80;;;;;;5094362;28;20020;-79
2021/12/22 07:30:31;;;;;;;19.20;9.75;;;-0.80;96.70;;;;;;5094267;28;20044;-77
2021/12/22 07:32:56;;;;;;;19.50;8.43;;;-0.80;96.80;;;;;;5094883;28;20028;-78
2021/12/22 07:35:29;;;;;;;14.10;7.00;;;-0.80;96.70;;;;;;5094106;28;20387;-81
2021/12/22 07:38:25;;;;;;;17.58;8.68;;;-0.80;96.70;;;;;;5094570;28;20012;-78
2021/12/22 07:40:56;;;;;;;20.15;8.07;;;-0.80;96.80;;;;;;5094044;28;20391;-79
2021/12/22 07:43:23;;;;;;;22.75;8.98;;;-0.80;96.70;;;;;;5075981;28;20468;-80
2021/12/22 07:45:49;;;;;;;21.77;8.48;;;-0.80;96.70;;;;;;5093771;28;20031;-80
2021/12/22 07:48:15;;;;;;;23.08;10.30;;;-0.80;96.70;;;;;;5075681;28;20027;-80
2021/12/22 07:50:41;;;;;;;22.08;8.77;;;-0.80;96.70;;;;;;5075460;28;20032;-79
2021/12/22 07:53:07;;;;;;;18.30;8.57;;;-0.70;96.70;;;;;;5075563;28;20056;-80
2021/12/22 07:55:33;;;;;;;16.75;7.68;;;-0.80;96.70;;;;;;5093360;28;20487;-80
2021/12/22 07:57:59;;;;;;;19.83;8.80;;;-0.80;96.70;;;;;;5075971;28;20024;-79
2021/12/22 08:00:24;;;;;;;17.92;8.77;;;-0.80;96.70;;;;;;5093338;28;20023;-79
2021/12/22 08:02:50;;;;;;;16.90;7.78;;;-0.80;96.80;;;;;;5075286;28;20104;-79
2021/12/22 08:05:16;;;;;;;15.98;8.10;;;-0.70;96.80;;;;;;5075285;28;20031;-80
2021/12/22 08:07:41;;;;;;;19.70;8.80;;;-0.70;96.80;;;;;;5093448;28;20032;-79
2021/12/22 08:10:08;;;;;;;21.05;8.45;;;-0.70;96.70;;;;;;5075317;28;20031;-79
2021/12/22 08:12:34;;;;;;;20.13;8.30;;;-0.70;96.70;;;;;;5093258;28;20040;-80
2021/12/22 08:15:01;;;;;;;20.90;8.70;;;-0.70;96.70;;;;;;5093871;28;20032;-79
2021/12/22 08:17:27;;;;;;;16.75;7.43;;;-0.70;96.70;;;;;;5093534;28;20024;-80
2021/12/22 08:19:56;;;;;;;21.75;8.93;;;-0.60;96.70;;;;;;5093675;28;20125;-79
2021/12/22 08:22:22;;;;;;;23.27;8.63;;;-0.60;96.70;;;;;;5094056;28;20035;-80
2021/12/22 08:24:50;;;;;;;19.73;9.27;;;-0.60;96.70;;;;;;5075345;28;20450;-79
2021/12/22 08:27:17;;;;;;;19.52;8.27;;;-0.60;96.70;;;;;;5076185;28;20448;-80
2021/12/22 08:29:44;;;;;;;13.30;7.07;;;-0.60;96.70;;;;;;5093558;28;20103;-79
2021/12/22 08:32:11;;;;;;;19.23;8.70;;;-0.50;96.70;;;;;;5093998;28;20024;-79
2021/12/22 08:34:39;;;;;;;16.52;7.00;;;-0.50;96.60;;;;;;5093960;28;20035;-80
2021/12/22 08:39:51;;;;;;;19.00;8.57;;;-0.50;96.60;;;;;;5098745;28;20089;-80
2021/12/22 08:42:17;;;;;;;19.52;7.35;;;-0.50;96.60;;;;;;5086270;28;20020;-80
2021/12/22 08:44:43;;;;;;;17.50;8.40;;;-0.40;96.60;;;;;;5094182;28;20036;-79
2021/12/22 08:47:09;;;;;;;17.33;8.00;;;-0.40;96.50;;;;;;5087509;28;20109;-80
2021/12/22 08:49:35;;;;;;;15.65;7.43;;;-0.40;96.60;;;;;;5097747;28;20099;-80
2021/12/22 08:52:02;;;;;;;17.73;8.52;;;-0.40;96.50;;;;;;5101323;28;20027;-79
2021/12/22 08:54:27;;;;;;;20.33;8.70;;;-0.30;96.60;;;;;;5097234;28;20104;-79
2021/12/22 08:56:55;;;;;;;18.52;7.75;;;-0.30;96.60;;;;;;5079010;28;20449;-79
2021/12/22 08:59:22;;;;;;;23.80;8.68;;;-0.30;96.60;;;;;;5078647;28;20024;-80
2021/12/22 09:01:49;;;;;;;14.45;7.22;;;-0.30;96.60;;;;;;5096965;28;20059;-80
2021/12/22 09:04:15;;;;;;;12.27;6.95;;;-0.20;96.60;;;;;;5078733;28;20479;-80
2021/12/22 09:06:41;;;;;;;16.48;8.02;;;-0.20;96.70;;;;;;5096993;28;20448;-80
2021/12/22 09:09:09;;;;;;;17.85;7.40;;;-0.20;96.60;;;;;;5096371;28;20061;-80
2021/12/22 09:11:35;;;;;;;20.75;7.82;;;-0.10;96.60;;;;;;5078356;28;20361;-80
2021/12/22 09:14:03;;;;;;;14.60;7.50;;;-0.10;96.60;;;;;;5078027;28;20024;-80
2021/12/22 09:16:30;;;;;;;13.15;7.55;;;0.00;96.80;;;;;;5096538;28;20051;-80
2021/12/22 09:18:56;;;;;;;16.00;6.68;;;0.00;96.50;;;;;;5096223;28;20035;-80
2021/12/22 09:21:22;;;;;;;17.75;8.00;;;0.00;96.50;;;;;;5077995;28;20047;-81
2021/12/22 09:23:48;;;;;;;17.60;7.57;;;0.10;96.40;;;;;;5096017;28;20032;-80
2021/12/22 09:26:15;;;;;;;18.20;7.50;;;0.10;96.40;;;;;;5097607;28;20024;-79
2021/12/22 09:28:40;;;;;;;14.20;6.70;;;0.20;96.40;;;;;;5087158;28;20479;-80
2021/12/22 09:31:07;;;;;;;16.30;7.82;;;0.20;96.40;;;;;;5102945;28;20028;-81
2021/12/22 09:33:34;;;;;;;17.67;8.18;;;0.20;96.40;;;;;;5089879;28;20047;-80
2021/12/22 09:36:01;;;;;;;16.27;7.43;;;0.30;96.40;;;;;;5096874;28;20451;-80
2021/12/22 09:38:26;;;;;;;13.82;6.20;;;0.30;96.40;;;;;;5096131;28;20452;-80
2021/12/22 09:40:52;;;;;;;12.07;5.50;;;0.40;96.40;;;;;;5078221;28;20107;-80
2021/12/22 09:43:18;;;;;;;11.75;6.57;;;0.40;96.30;;;;;;5078546;28;20028;-80
2021/12/22 09:45:48;;;;;;;16.30;6.47;;;0.40;96.30;;;;;;5096203;28;20448;-81
2021/12/22 09:53:22;;;;;;;17.67;6.05;;;0.60;96.30;;;;;;5096559;28;20043;-81
2021/12/22 09:55:49;;;;;;;13.95;6.40;;;0.60;96.50;;;;;;5096195;28;20020;-80
2021/12/22 09:58:16;;;;;;;14.45;6.55;;;0.60;96.20;;;;;;5096242;28;20106;-81
2021/12/22 10:00:43;;;;;;;18.35;7.53;;;0.70;96.20;;;;;;5095389;28;20081;-80
2021/12/22 10:03:10;;;;;;;11.27;6.05;;;0.70;96.10;;;;;;5095428;28;20032;-80
2021/12/22 10:05:38;;;;;;;14.52;5.95;;;0.70;96.10;;;;;;5077740;28;20085;-80
2021/12/22 10:08:06;;;;;;;14.02;6.82;;;0.80;96.20;;;;;;5095802;28;20024;-79
2021/12/22 10:10:33;;;;;;;14.75;6.45;;;0.80;96.10;;;;;;5077304;28;20028;-80
2021/12/22 10:13:07;;;;;;;12.30;6.40;;;0.90;96.40;;;;;;5076989;28;20032;-80
2021/12/22 10:15:35;;;;;;;12.13;5.63;;;0.90;96.10;;;;;;5077622;28;20137;-80
2021/12/22 10:18:13;;;;;;;13.48;6.40;;;0.90;96.00;;;;;;5077269;28;20521;-79
2021/12/22 10:20:41;;;;;;;10.98;5.53;;;1.00;96.00;;;;;;5095476;28;20040;-79
2021/12/22 10:23:25;;;;;;;10.88;4.85;;;1.00;96.00;;;;;;5077335;28;20052;-79
2021/12/22 10:25:56;;;;;;;8.50;5.70;;;1.10;96.00;;;;;;5078020;28;20020;-79
2021/12/22 10:28:24;;;;;;;10.00;6.05;;;1.10;95.90;;;;;;5077895;28;20024;-80
2021/12/22 10:30:56;;;;;;;12.73;5.47;;;1.20;95.90;;;;;;5095331;28;20024;-79
2021/12/22 10:33:24;;;;;;;15.68;6.03;;;1.30;95.90;;;;;;5077296;28;20027;-79
2021/12/22 10:35:56;;;;;;;12.40;5.95;;;1.30;95.80;;;;;;5095115;28;20456;-79
2021/12/22 10:38:27;;;;;;;12.23;6.20;;;1.30;96.10;;;;;;5096051;28;20028;-79
2021/12/22 10:41:00;;;;;;;13.38;5.78;;;1.30;95.80;;;;;;5095126;28;20020;-79
2021/12/22 10:43:28;;;;;;;9.95;5.03;;;1.30;95.80;;;;;;5095115;28;20056;-80
2021/12/22 10:46:00;;;;;;;11.10;5.82;;;1.40;95.90;;;;;;5095504;28;20099;-80
2021/12/22 10:51:20;;;;;;;14.75;5.72;;;1.50;95.80;;;;;;5105553;28;20023;-80
2021/12/22 10:53:49;;;;;;;10.30;4.95;;;1.50;95.70;;;;;;5090735;28;20039;-80
2021/12/22 10:56:43;;;;;;;11.50;5.40;;;1.50;95.70;;;;;;5107408;28;20011;-80
2021/12/22 10:59:10;;;;;;;10.55;5.47;;;1.60;95.80;;;;;;5102757;28;20062;-80
2021/12/22 11:01:38;;;;;;;11.43;5.65;;;1.60;95.70;;;;;;5077855;28;20103;-80
2021/12/22 11:04:14;;;;;;;12.70;5.20;;;1.70;95.70;;;;;;5076875;28;20056;-80
2021/12/22 11:06:40;;;;;;;12.13;5.47;;;1.70;95.70;;;;;;5077060;28;20020;-80
2021/12/22 11:09:13;;;;;;;10.48;6.07;;;1.70;95.70;;;;;;5095036;28;20444;-80
2021/12/22 11:11:51;;;;;;;10.13;5.57;;;1.70;95.70;;;;;;5076600;28;20403;-80
2021/12/22 11:14:24;;;;;;;9.73;5.50;;;1.80;95.70;;;;;;5094436;28;20460;-80
2021/12/22 11:16:53;;;;;;;10.45;6.03;;;1.90;95.60;;;;;;5077080;28;20469;-80
2021/12/22 11:19:19;;;;;;;10.05;5.65;;;1.90;95.60;;;;;;5084139;28;20050;-80
2021/12/22 11:22:12;;;;;;;12.55;6.00;;;2.00;95.60;;;;;;5106141;28;20448;-80
2021/12/22 11:24:44;;;;;;;12.95;5.82;;;2.00;95.50;;;;;;5094260;28;20061;-80
2021/12/22 11:27:12;;;;;;;11.57;5.95;;;2.10;95.50;;;;;;5098854;28;20027;-81
2021/12/22 11:29:41;;;;;;;14.27;6.47;;;2.20;95.40;;;;;;5094910;28;20058;-80
2021/12/22 11:32:08;;;;;;;11.88;5.50;;;2.20;95.40;;;;;;5094683;28;20028;-81
2021/12/22 11:34:36;;;;;;;11.15;5.35;;;2.20;95.30;;;;;;5094540;28;20028;-80
2021/12/22 11:37:07;;;;;;;13.13;5.72;;;2.30;95.40;;;;;;5076777;28;20039;-80
2021/12/22 11:39:35;;;;;;;10.93;5.78;;;2.30;95.30;;;;;;5094043;28;20375;-81
2021/12/22 11:42:03;;;;;;;11.55;5.25;;;2.30;95.40;;;;;;5075986;28;20020;-80
2021/12/22 11:44:31;;;;;;;13.13;5.85;;;2.30;95.40;;;;;;5075607;28;20063;-81
2021/12/22 11:47:00;;;;;;;10.93;6.03;;;2.40;95.40;;;;;;5075554;28;20094;-80
2021/12/22 11:49:27;;;;;;;10.23;5.07;;;2.40;95.40;;;;;;5093870;28;20027;-80
2021/12/22 11:51:53;;;;;;;12.00;5.93;;;2.40;95.40;;;;;;5093925;28;20420;-81
2021/12/22 11:54:25;;;;;;;10.13;6.10;;;2.40;95.40;;;;;;5094280;28;20024;-81
2021/12/22 11:56:54;;;;;;;12.60;6.55;;;2.50;95.40;;;;;;5076445;28;20040;-81
2021/12/22 11:59:38;;;;;;;10.90;6.03;;;2.50;95.30;;;;;;5076044;28;20024;-80
2021/12/22 12:02:20;;;;;;;10.18;6.20;;;2.50;95.30;;;;;;5076252;28;20349;-81
2021/12/22 12:04:49;;;;;;;11.40;6.70;;;2.60;95.30;;;;;;5076097;28;20529;-80
2021/12/22 12:07:57;;;;;;;11.57;6.40;;;2.60;95.20;;;;;;5076086;28;20104;-80
2021/12/22 12:10:42;;;;;;;12.75;6.55;;;2.60;95.30;;;;;;4991967;28;20031;-80
2021/12/22 12:13:22;;;;;;;12.80;6.03;;;2.60;95.20;;;;;;5094698;28;20040;-80
2021/12/22 12:22:19;;;;;;;11.50;6.40;;;2.70;95.20;;;;;;5098259;28;20490;-80
2021/12/22 12:25:05;;;;;;;11.77;6.43;;;2.70;95.20;;;;;;5097879;28;20016;-80
2021/12/22 12:27:33;;;;;;;12.70;6.70;;;2.70;95.20;;;;;;5097564;28;20246;-80
2021/12/22 12:30:05;;;;;;;15.63;6.32;;;2.70;95.20;;;;;;5098096;28;20035;-80
2021/12/22 12:32:40;;;;;;;11.77;6.55;;;2.70;95.20;;;;;;5079310;28;20030;-80
2021/12/22 12:35:23;;;;;;;11.73;5.80;;;2.70;95.30;;;;;;5097754;28;20153;-80
2021/12/22 12:38:14;;;;;;;13.32;6.45;;;2.60;95.30;;;;;;5097943;28;20055;-81
2021/12/22 12:41:02;;;;;;;12.43;6.63;;;2.60;95.30;;;;;;5079546;28;20367;-82
2021/12/22 12:43:51;;;;;;;11.70;5.70;;;2.60;95.30;;;;;;5079604;28;20028;-81
2021/12/22 12:46:20;;;;;;;14.65;6.55;;;2.60;95.40;;;;;;5097600;28;20020;-79
2021/12/22 12:48:50;;;;;;;13.02;5.80;;;2.50;95.40;;;;;;5097096;28;20531;-79
2021/12/22 12:51:19;;;;;;;12.98;5.97;;;2.60;95.40;;;;;;5097245;28;20032;-80
2021/12/22 12:53:47;;;;;;;12.00;5.68;;;2.60;95.40;;;;;;5097522;28;20446;-80
2021/12/22 12:56:14;;;;;;;11.02;5.60;;;2.60;95.40;;;;;;5079991;28;20036;-80
2021/12/22 12:58:54;;;;;;;11.60;5.47;;;2.50;95.40;;;;;;5079760;28;20115;-80
2021/12/22 13:01:45;;;;;;;12.60;5.97;;;2.50;95.50;;;;;;5100995;28;20052;-80
2021/12/22 13:04:24;;;;;;;12.07;6.30;;;2.50;95.50;;;;;;5096365;28;20035;-80
2021/12/22 13:06:51;;;;;;;10.90;6.00;;;2.50;95.50;;;;;;5088683;28;20024;-80
2021/12/22 13:09:25;;;;;;;9.77;5.68;;;2.50;95.50;;;;;;5097374;28;20020;-80
2021/12/22 13:12:02;;;;;;;15.88;6.65;;;2.50;95.50;;;;;;5087357;28;20020;-79
2021/12/22 13:17:19;;;;;;;14.18;6.78;;;2.50;95.50;;;;;;5115492;28;20043;-81
2021/12/22 13:19:48;;;;;;;11.18;6.28;;;2.50;95.50;;;;;;5100841;28;20463;-80
2021/12/22 13:22:25;;;;;;;11.35;6.72;;;2.50;95.50;;;;;;5077442;28;20024;-80
2021/12/22 13:25:17;;;;;;;10.68;5.10;;;2.50;95.50;;;;;;5077463;28;20119;-80
2021/12/22 13:27:47;;;;;;;10.65;6.70;;;2.50;95.60;;;;;;5077691;28;20020;-81
2021/12/22 13:30:17;;;;;;;10.82;6.40;;;2.50;95.50;;;;;;5078951;28;20056;-81